Lake Placid, NY (12946)

2:03 PM EST on February 09, 2016 (GMT -0500)
Intervale Lowlands | | Change Station
CLOSE
Current Station
Personal Weather Station
Location: Lake Placid, NY
Elevation: 1680 ft
Nearby Weather Stations

Elev 1680 ft 44.27 °N, 73.95 °W | Updated 13 seconds ago

Snow
Snow
27.1 °F
Feels Like 27 °F
N
3.0
Wind Variable Wind from NE
Gusts 6.0 mph

Today
High -- | Low -- °F
--% Chance of Precip.
Yesterday
High -- | Low -- °F
Precip. -- in
Pressure 29.44 in
Visibility 2.0 miles
Clouds Mostly Cloudy 3100 ft
Overcast 3700 ft
Windchill 27 °F
Dew Point 26 °F
Humidity 94%
Rainfall 0.00 in
Snow Depth Not available.
7:04 AM 5:16 PM
New Moon, 2% visible
SPECI KSLK 091858Z AUTO 04003KT 2SM -SN BKN031 OVC037 M03/M07 A2944 RMK AO2 P0000 T10331072
Pressure 29.44 in
Visibility 2.0 miles
Clouds Mostly Cloudy 3100 ft
Overcast 3700 ft
Windchill 27 °F
Dew Point 26 °F
Humidity 94%
Rainfall 0.00 in
Snow Depth Not available.
7:04 AM 5:16 PM
New Moon, 2% visible
SPECI KSLK 091858Z AUTO 04003KT 2SM -SN BKN031 OVC037 M03/M07 A2944 RMK AO2 P0000 T10331072

10-Day Weather Forecast

Almanac

Astronomy

Feb. 09, 2016 Rise Set
Actual Time
Civil Twilight
Nautical Twilight
Astronomical Twilight
Moon
Length of Visible Light
Length of Day
Tomorrow will be .
, % of the Moon is Illuminated

Today's Extremes

State Highs State Lows

Community

WunderPhotos

Upload Photos

1,891,664 photos uploaded!

WunderBlog® & News

Nearby

Air Quality

  Air Quality AQ Index Pollutant
Not available.

Snow Depth

Station Depth Elevation

Earthquake Activity

City Distance Mag. Time & Date
Minimum magnitude displayed is 2.5.

Coastal Water Temperatures

Place Temperature

Stations

Nearby Weather Stations

Station Location Temp. Windchill Dew Point Humidity Wind Precip. Elev Updated Type
                   

Watches & Warnings

There are currently no watches in effect.